This is the latest recevied weather packets stored in our database for station/object N4CRH-13. If no packets are shown the sender has not sent any weather packets the latest 10 day(s).
| Time | Temp. | Humidity | Pressure | Rain* | Wind** | Luminosity | Snow |
|---|---|---|---|---|---|---|---|
| 1777946365 | 6.67° C | 91% | 1290 hPa | 0 mm | - | 0 W/m² | - |
| 1777946062 | 6.67° C | 91% | 1289.8 hPa | 0 mm | - | 0 W/m² | - |
| 1777945759 | 7.22° C | 91% | 1289.8 hPa | 0 mm | - | 1 W/m² | - |
| 1777945456 | 7.22° C | 89% | 1289.4 hPa | 0 mm | - | 1 W/m² | - |
| 1777945153 | 7.22° C | 87% | 1289.4 hPa | 0 mm | - | 1 W/m² | - |
| 1777944850 | 7.22° C | 86% | 1289.2 hPa | 0 mm | - | 2 W/m² | - |
| 1777944548 | 7.78° C | 81% | 1289.1 hPa | 1.78 mm | - | 6 W/m² | - |
| 1777944246 | 7.78° C | 79% | 1289.8 hPa | 1.78 mm | - | 7 W/m² | - |
| 1777943941 | 7.78° C | 79% | 1289.8 hPa | 1.27 mm | - | 6 W/m² | - |
| 1777943638 | 8.89° C | 71% | 1289.8 hPa | 3.05 mm | - | 8 W/m² | - |
| 1777943335 | 8.89° C | 71% | 1289.6 hPa | 1.78 mm | - | 7 W/m² | - |
| 1777943031 | 9.44° C | 68% | 1289.7 hPa | 0 mm | - | 6 W/m² | - |
| 1777942727 | 10° C | 61% | 1289.5 hPa | 0 mm | - | 5 W/m² | - |
| 1777942424 | 10.56° C | 56% | 1289.2 hPa | 0 mm | - | 6 W/m² | - |
| 1777942122 | 11.11° C | 51% | 1289.2 hPa | 0 mm | - | 6 W/m² | - |
| 1777941817 | 11.11° C | 51% | 1289.1 hPa | 0 mm | - | 8 W/m² | - |
| 1777941515 | 11.11° C | 50% | 1289.1 hPa | 0 mm | - | 11 W/m² | - |
| 1777941212 | 11.11° C | 49% | 1289 hPa | 0 mm | - | 13 W/m² | - |
| 1777940908 | 11.11° C | 50% | 1288.9 hPa | 0 mm | - | 14 W/m² | - |
| 1777940605 | 11.67° C | 48% | 1289.1 hPa | 0 mm | - | 18 W/m² | - |
| 1777940304 | 11.67° C | 48% | 1289.2 hPa | 0 mm | - | 17 W/m² | - |
| 1777940000 | 11.67° C | 47% | 1289.1 hPa | 0 mm | - | 16 W/m² | - |
| 1777939698 | 12.22° C | 46% | 1288.7 hPa | 0 mm | - | 26 W/m² | - |
| 1777939395 | 12.22° C | 46% | 1288.7 hPa | 0 mm | - | 34 W/m² | - |
| 1777939091 | 12.22° C | 45% | 1288.9 hPa | 0 mm | - | 41 W/m² | - |
* Rain latest hour (hover to see other rain measurements)
** Current wind speed in m/s (hover to see current wind gust speed)